createdAt,value
2023-02-28T00:00:14.699Z,-0.26
2023-02-28T00:03:17.405Z,-0.23
2023-02-28T00:06:20.400Z,-0.25
2023-02-28T00:09:23.040Z,-0.27
2023-02-28T00:12:26.277Z,-0.26
2023-02-28T00:15:29.009Z,-0.27
2023-02-28T00:18:32.135Z,-0.29
2023-02-28T00:21:34.893Z,-0.32
2023-02-28T00:24:37.718Z,-0.35
2023-02-28T00:27:41.411Z,-0.38
2023-02-28T00:30:44.295Z,-0.40
2023-02-28T00:33:47.271Z,-0.49
2023-02-28T00:36:52.621Z,-0.54
2023-02-28T00:39:55.373Z,-0.70
2023-02-28T00:42:58.350Z,-0.78
2023-02-28T00:46:01.215Z,-0.83
2023-02-28T00:49:04.022Z,-0.92
2023-02-28T00:52:06.721Z,-1.00
2023-02-28T00:55:09.768Z,-1.09
2023-02-28T00:58:12.428Z,-1.17
2023-02-28T01:01:15.269Z,-1.29
2023-02-28T01:04:18.549Z,-1.35
2023-02-28T01:07:21.274Z,-1.49
2023-02-28T01:10:24.271Z,-1.54
2023-02-28T01:13:26.971Z,-1.58
2023-02-28T01:16:29.749Z,-1.68
2023-02-28T01:19:32.515Z,-1.76
2023-02-28T01:22:36.058Z,-1.85
2023-02-28T01:25:39.314Z,-1.90
2023-02-28T01:28:42.197Z,-1.93
2023-02-28T01:31:45.207Z,-1.94
2023-02-28T01:34:47.913Z,-1.96
2023-02-28T01:37:50.533Z,-1.96
2023-02-28T01:40:53.612Z,-1.96
2023-02-28T01:44:06.110Z,-1.99
2023-02-28T01:47:08.753Z,-2.02
2023-02-28T01:50:16.517Z,-2.05
2023-02-28T01:53:22.688Z,-2.06
2023-02-28T01:56:29.457Z,-2.06
2023-02-28T01:59:37.174Z,-2.07
2023-02-28T02:02:40.573Z,-2.07
2023-02-28T02:05:48.920Z,-2.09
2023-02-28T02:08:53.573Z,-2.07
2023-02-28T02:11:56.862Z,-2.03
2023-02-28T02:15:15.033Z,-2.03
2023-02-28T02:18:32.819Z,-2.06
2023-02-28T02:21:59.968Z,-2.15
2023-02-28T02:25:12.037Z,-2.14
2023-02-28T02:28:46.577Z,-2.14
2023-02-28T02:32:38.674Z,-2.16
2023-02-28T02:35:54.634Z,-2.17
2023-02-28T02:39:24.093Z,-2.17
2023-02-28T02:42:37.323Z,-2.15
2023-02-28T02:46:02.315Z,-2.15
2023-02-28T02:49:07.840Z,-2.12
2023-02-28T02:52:13.087Z,-2.09
2023-02-28T02:55:16.928Z,-2.07
2023-02-28T02:58:20.469Z,-2.07
2023-02-28T03:01:30.817Z,-2.04
2023-02-28T03:04:38.910Z,-2.09
2023-02-28T03:07:41.610Z,-2.12
2023-02-28T03:10:47.344Z,-2.10
2023-02-28T03:14:15.333Z,-2.10
2023-02-28T03:17:39.845Z,-2.12
2023-02-28T03:21:20.497Z,-2.17
2023-02-28T03:24:35.459Z,-2.20
2023-02-28T03:28:07.889Z,-2.23
2023-02-28T03:31:24.869Z,-2.17
2023-02-28T03:34:34.749Z,-2.14
2023-02-28T03:37:39.744Z,-2.10
2023-02-28T03:40:47.070Z,-2.08
2023-02-28T03:44:03.551Z,-2.06
2023-02-28T03:47:24.355Z,-2.03
2023-02-28T03:50:39.613Z,-2.03
2023-02-28T03:54:07.868Z,-2.07
2023-02-28T03:57:15.771Z,-2.09
2023-02-28T04:00:18.611Z,-2.03
2023-02-28T04:03:21.832Z,-2.06
2023-02-28T04:06:25.450Z,-2.03
2023-02-28T04:09:28.577Z,-2.00
2023-02-28T04:12:31.285Z,-1.96
2023-02-28T04:15:34.113Z,-1.92
2023-02-28T04:18:37.021Z,-1.91
2023-02-28T04:21:48.976Z,-1.86
2023-02-28T04:24:51.644Z,-1.87
2023-02-28T04:27:54.286Z,-1.88
2023-02-28T04:30:58.584Z,-1.86
2023-02-28T04:34:02.020Z,-1.86
2023-02-28T04:37:13.940Z,-1.82
2023-02-28T04:40:17.655Z,-1.78
2023-02-28T04:43:20.370Z,-1.78
2023-02-28T04:46:23.523Z,-1.75
2023-02-28T04:49:26.271Z,-1.72
2023-02-28T04:52:29.312Z,-1.69
2023-02-28T04:55:31.977Z,-1.70
2023-02-28T04:58:35.263Z,-1.69
2023-02-28T05:01:38.067Z,-1.65
2023-02-28T05:04:40.814Z,-1.64
2023-02-28T05:07:43.482Z,-1.64
2023-02-28T05:10:46.240Z,-1.63
2023-02-28T05:13:49.885Z,-1.60
2023-02-28T05:16:52.638Z,-1.57
2023-02-28T05:20:01.101Z,-1.54
2023-02-28T05:23:12.302Z,-1.53
2023-02-28T05:26:15.110Z,-1.51
2023-02-28T05:29:17.846Z,-1.53
2023-02-28T05:32:20.623Z,-1.51
2023-02-28T05:35:23.445Z,-1.49
2023-02-28T05:38:26.280Z,-1.47
2023-02-28T05:41:29.406Z,-1.45
2023-02-28T05:44:32.795Z,-1.43
2023-02-28T05:47:36.179Z,-1.43
2023-02-28T05:50:39.242Z,-1.40
2023-02-28T05:53:41.937Z,-1.36
2023-02-28T05:56:45.324Z,-1.34
2023-02-28T05:59:48.383Z,-1.32
2023-02-28T06:02:52.692Z,-1.34
2023-02-28T06:05:55.374Z,-1.32
2023-02-28T06:08:58.615Z,-1.27
2023-02-28T06:12:04.888Z,-1.21
2023-02-28T06:15:08.052Z,-1.17
2023-02-28T06:18:10.776Z,-1.13
2023-02-28T06:21:13.989Z,-1.10
2023-02-28T06:24:16.755Z,-1.05
2023-02-28T06:27:20.521Z,-1.03
2023-02-28T06:30:28.112Z,-1.02
2023-02-28T06:33:30.862Z,-0.99
2023-02-28T06:36:33.681Z,-0.96
2023-02-28T06:39:36.549Z,-0.93
2023-02-28T06:42:39.366Z,-0.89
2023-02-28T06:45:45.457Z,-0.83
2023-02-28T06:48:48.511Z,-0.73
2023-02-28T06:51:51.197Z,-0.57
2023-02-28T06:55:01.331Z,-0.40
2023-02-28T06:58:04.027Z,-0.26
2023-02-28T07:01:07.816Z,-0.12
2023-02-28T07:04:10.797Z,-0.02
2023-02-28T07:07:13.484Z,0.06
2023-02-28T07:10:20.115Z,-0.02
2023-02-28T07:13:24.118Z,-0.04
2023-02-28T07:16:27.372Z,-0.02
2023-02-28T07:19:30.285Z,-0.01
2023-02-28T07:22:32.968Z,-0.02
2023-02-28T07:25:35.678Z,0.04
2023-02-28T07:28:39.459Z,0.13
2023-02-28T07:31:42.155Z,0.22
2023-02-28T07:34:44.944Z,0.28
2023-02-28T07:37:48.343Z,0.34
2023-02-28T07:40:51.058Z,0.45
2023-02-28T07:43:56.310Z,0.59
2023-02-28T07:46:59.400Z,0.67
2023-02-28T07:50:02.232Z,0.77
2023-02-28T07:53:05.743Z,0.86
2023-02-28T07:56:08.983Z,0.97
2023-02-28T07:59:11.706Z,1.09
2023-02-28T08:02:16.855Z,1.25
2023-02-28T08:05:22.044Z,1.37
2023-02-28T08:08:25.109Z,1.47
2023-02-28T08:11:28.263Z,1.71
2023-02-28T08:14:31.450Z,1.82
2023-02-28T08:17:35.475Z,2.00
2023-02-28T08:20:38.546Z,2.11
2023-02-28T08:23:41.377Z,2.34
2023-02-28T08:26:44.655Z,2.71
2023-02-28T08:29:47.314Z,2.82
2023-02-28T08:32:50.245Z,3.06
2023-02-28T08:35:57.368Z,3.20
2023-02-28T08:39:00.935Z,3.31
2023-02-28T08:42:07.861Z,3.28
2023-02-28T08:45:11.384Z,3.52
2023-02-28T08:48:14.741Z,3.27
2023-02-28T08:51:23.320Z,3.32
2023-02-28T08:54:26.733Z,3.00
2023-02-28T08:57:29.407Z,3.25
2023-02-28T09:00:32.194Z,3.73
2023-02-28T09:03:34.937Z,4.13
2023-02-28T09:06:37.790Z,4.33
2023-02-28T09:09:54.787Z,4.63
2023-02-28T09:12:58.444Z,4.62
2023-02-28T09:16:02.747Z,5.02
2023-02-28T09:19:05.580Z,5.11
2023-02-28T09:22:08.369Z,5.55
2023-02-28T09:25:12.020Z,5.62
2023-02-28T09:28:17.041Z,5.58
2023-02-28T09:31:23.190Z,5.94
2023-02-28T09:34:27.184Z,6.20
2023-02-28T09:37:30.533Z,6.08
2023-02-28T09:40:33.285Z,6.35
2023-02-28T09:43:39.533Z,6.42
2023-02-28T09:46:45.114Z,6.66
2023-02-28T09:49:49.436Z,7.07
2023-02-28T09:52:54.642Z,7.39
2023-02-28T09:56:00.824Z,7.29
2023-02-28T09:59:03.410Z,7.60
2023-02-28T10:02:21.738Z,7.21
2023-02-28T10:05:28.771Z,7.67
2023-02-28T10:08:51.840Z,7.57
2023-02-28T10:11:59.035Z,7.73
2023-02-28T10:15:03.573Z,7.77
2023-02-28T10:18:12.161Z,8.16
2023-02-28T10:21:39.790Z,8.56
2023-02-28T10:24:47.828Z,8.71
2023-02-28T10:27:51.786Z,8.68
2023-02-28T10:30:55.751Z,8.79
2023-02-28T10:33:58.448Z,8.48
2023-02-28T10:37:08.437Z,8.50
2023-02-28T10:40:33.766Z,9.49
2023-02-28T10:43:37.717Z,10.06
2023-02-28T10:46:42.749Z,9.60
2023-02-28T10:49:50.569Z,9.13
2023-02-28T10:52:54.643Z,8.68
2023-02-28T10:56:15.509Z,9.50
2023-02-28T10:59:30.755Z,9.78
2023-02-28T11:02:39.475Z,10.19
2023-02-28T11:05:47.612Z,10.11
2023-02-28T11:08:56.128Z,10.21
2023-02-28T11:11:59.182Z,10.32
2023-02-28T11:15:22.846Z,11.36
2023-02-28T11:18:57.129Z,12.16
2023-02-28T11:22:03.075Z,11.84
2023-02-28T11:25:25.688Z,12.69
2023-02-28T11:28:33.719Z,12.39
2023-02-28T11:31:39.537Z,11.90
2023-02-28T11:34:44.536Z,11.40
2023-02-28T11:37:47.491Z,11.62
2023-02-28T11:41:03.710Z,12.62
2023-02-28T11:44:12.391Z,12.08
2023-02-28T11:47:38.724Z,12.56
2023-02-28T11:51:18.708Z,13.13
2023-02-28T11:54:50.770Z,13.80
2023-02-28T11:58:02.603Z,13.06
2023-02-28T12:01:25.443Z,13.90
2023-02-28T12:04:58.796Z,13.33
2023-02-28T12:08:17.357Z,13.58
2023-02-28T12:11:29.967Z,13.73
2023-02-28T12:14:55.743Z,13.32
2023-02-28T12:18:26.461Z,13.87
2023-02-28T12:21:51.821Z,14.19
2023-02-28T12:25:07.700Z,14.24
2023-02-28T12:28:13.023Z,13.74
2023-02-28T12:31:18.898Z,14.61
2023-02-28T12:34:30.216Z,14.73
2023-02-28T12:37:44.352Z,15.30
2023-02-28T12:41:03.364Z,14.16
2023-02-28T12:44:14.147Z,14.93
2023-02-28T12:47:19.399Z,15.00
2023-02-28T12:50:24.468Z,14.91
2023-02-28T12:54:12.019Z,15.72
2023-02-28T12:57:24.797Z,14.36
2023-02-28T13:00:35.969Z,15.20
2023-02-28T13:04:28.711Z,15.23
2023-02-28T13:08:09.020Z,15.16
2023-02-28T13:11:30.179Z,15.38
2023-02-28T13:14:36.633Z,15.85
2023-02-28T13:17:41.677Z,15.84
2023-02-28T13:20:49.214Z,15.48
2023-02-28T13:24:02.065Z,15.61
2023-02-28T13:27:10.540Z,14.82
2023-02-28T13:30:50.895Z,15.95
2023-02-28T13:34:00.758Z,16.10
2023-02-28T13:37:22.269Z,15.46
2023-02-28T13:40:31.994Z,15.86
2023-02-28T13:44:09.578Z,16.28
2023-02-28T13:47:21.777Z,16.19
2023-02-28T13:50:27.819Z,16.92
2023-02-28T13:53:55.420Z,16.20
2023-02-28T13:57:24.746Z,15.58
2023-02-28T14:00:58.724Z,15.98
2023-02-28T14:04:15.918Z,15.94
2023-02-28T14:07:25.652Z,16.00
2023-02-28T14:10:34.644Z,16.15
2023-02-28T14:13:48.254Z,15.77
2023-02-28T14:16:52.212Z,13.88
2023-02-28T14:19:55.224Z,14.78
2023-02-28T14:23:06.218Z,14.95
2023-02-28T14:26:12.764Z,15.84
2023-02-28T14:29:31.065Z,16.42
2023-02-28T14:32:50.997Z,16.30
2023-02-28T14:36:09.032Z,16.60
2023-02-28T14:39:17.943Z,16.28
2023-02-28T14:42:36.157Z,16.42
2023-02-28T14:45:38.914Z,16.44
2023-02-28T14:48:42.347Z,15.79
2023-02-28T14:51:45.242Z,14.75
2023-02-28T14:54:53.079Z,13.97
2023-02-28T14:58:01.761Z,14.41
2023-02-28T15:01:05.738Z,14.78
2023-02-28T15:04:22.570Z,14.43
2023-02-28T15:07:29.792Z,14.29
2023-02-28T15:10:33.197Z,13.49
2023-02-28T15:13:51.939Z,13.89
2023-02-28T15:16:58.409Z,14.40
2023-02-28T15:20:01.458Z,13.88
2023-02-28T15:23:05.234Z,12.95
2023-02-28T15:26:08.178Z,11.36
2023-02-28T15:29:17.802Z,10.01
2023-02-28T15:32:41.056Z,9.54
2023-02-28T15:35:45.234Z,9.06
2023-02-28T15:38:53.072Z,8.61
2023-02-28T15:42:23.082Z,8.27
2023-02-28T15:45:54.866Z,7.75
2023-02-28T15:48:59.167Z,7.45
2023-02-28T15:52:02.027Z,7.37
2023-02-28T15:55:11.114Z,7.23
2023-02-28T15:58:14.562Z,7.08
2023-02-28T16:01:25.498Z,6.93
2023-02-28T16:04:35.822Z,6.78
2023-02-28T16:07:50.037Z,6.57
2023-02-28T16:10:53.261Z,6.41
2023-02-28T16:13:56.051Z,6.30
2023-02-28T16:17:15.345Z,6.21
2023-02-28T16:20:24.929Z,6.10
2023-02-28T16:23:28.293Z,6.04
2023-02-28T16:26:31.420Z,5.86
2023-02-28T16:29:38.194Z,5.75
2023-02-28T16:32:41.109Z,5.63
2023-02-28T16:35:45.299Z,5.46
2023-02-28T16:38:48.372Z,5.23
2023-02-28T16:41:52.399Z,5.04
2023-02-28T16:44:55.747Z,4.78
2023-02-28T16:47:58.834Z,4.52
2023-02-28T16:51:01.792Z,4.24
2023-02-28T16:54:07.381Z,3.96
2023-02-28T16:57:24.380Z,3.77
2023-02-28T17:00:30.459Z,3.59
2023-02-28T17:03:34.262Z,3.35
2023-02-28T17:06:37.292Z,3.09
2023-02-28T17:09:43.505Z,2.89
2023-02-28T17:12:48.042Z,2.68
2023-02-28T17:15:51.065Z,2.47
2023-02-28T17:19:08.602Z,2.29
2023-02-28T17:22:11.885Z,2.11
2023-02-28T17:25:14.905Z,1.94
2023-02-28T17:28:17.556Z,1.77
2023-02-28T17:31:20.585Z,1.60
2023-02-28T17:34:24.085Z,1.38
2023-02-28T17:37:27.113Z,1.24
2023-02-28T17:40:31.170Z,1.14
2023-02-28T17:43:33.995Z,0.95
2023-02-28T17:46:37.382Z,0.87
2023-02-28T17:49:40.181Z,0.73
2023-02-28T17:52:42.962Z,0.66
2023-02-28T17:55:45.801Z,0.49
2023-02-28T17:58:49.206Z,0.37
2023-02-28T18:01:52.598Z,0.29
2023-02-28T18:04:55.678Z,0.21
2023-02-28T18:07:58.816Z,0.12
2023-02-28T18:11:02.545Z,-0.02
2023-02-28T18:14:05.716Z,-0.12
2023-02-28T18:17:13.336Z,-0.18
2023-02-28T18:20:17.969Z,-0.34
2023-02-28T18:23:21.801Z,-0.38
2023-02-28T18:26:24.801Z,-0.50
2023-02-28T18:29:28.644Z,-0.56
2023-02-28T18:32:32.021Z,-0.58
2023-02-28T18:35:35.251Z,-0.65
2023-02-28T18:38:42.432Z,-0.75
2023-02-28T18:41:45.249Z,-0.85
2023-02-28T18:44:48.501Z,-0.96
2023-02-28T18:47:51.496Z,-1.01
2023-02-28T18:50:54.501Z,-1.12
2023-02-28T18:53:57.731Z,-1.21
2023-02-28T18:57:01.008Z,-1.27
2023-02-28T19:00:04.561Z,-1.33
2023-02-28T19:03:09.605Z,-1.39
2023-02-28T19:06:13.146Z,-1.44
2023-02-28T19:09:17.385Z,-1.53
2023-02-28T19:12:22.330Z,-1.56
2023-02-28T19:15:25.397Z,-1.61
2023-02-28T19:18:28.354Z,-1.64
2023-02-28T19:21:31.717Z,-1.69
2023-02-28T19:24:34.734Z,-1.79
2023-02-28T19:27:37.780Z,-1.86
2023-02-28T19:30:47.267Z,-1.94
2023-02-28T19:33:53.067Z,-1.98
2023-02-28T19:36:57.274Z,-2.01
2023-02-28T19:40:00.835Z,-2.01
2023-02-28T19:43:05.369Z,-2.05
2023-02-28T19:46:12.673Z,-2.14
2023-02-28T19:49:15.781Z,-2.23
2023-02-28T19:52:19.915Z,-2.35
2023-02-28T19:55:23.041Z,-2.41
2023-02-28T19:58:28.982Z,-2.45
2023-02-28T20:01:32.168Z,-2.43
2023-02-28T20:04:36.026Z,-2.46
2023-02-28T20:07:38.732Z,-2.45
2023-02-28T20:10:42.674Z,-2.43
2023-02-28T20:13:46.540Z,-2.40
2023-02-28T20:16:49.485Z,-2.42
2023-02-28T20:19:52.676Z,-2.47
2023-02-28T20:22:55.472Z,-2.48
2023-02-28T20:26:02.323Z,-2.47
2023-02-28T20:29:06.591Z,-2.46
2023-02-28T20:32:09.655Z,-2.47
2023-02-28T20:35:12.733Z,-2.54
2023-02-28T20:38:15.684Z,-2.60
2023-02-28T20:41:19.345Z,-2.62
2023-02-28T20:44:22.143Z,-2.62
2023-02-28T20:47:26.173Z,-2.64
2023-02-28T20:50:29.510Z,-2.72
2023-02-28T20:53:34.043Z,-2.80
2023-02-28T20:56:37.519Z,-2.86
2023-02-28T20:59:41.391Z,-2.85
2023-02-28T21:02:44.412Z,-2.87
2023-02-28T21:05:47.490Z,-2.93
2023-02-28T21:08:50.656Z,-2.99
2023-02-28T21:11:58.276Z,-3.03
2023-02-28T21:15:02.247Z,-3.02
2023-02-28T21:18:06.073Z,-3.02
2023-02-28T21:21:11.767Z,-3.01
2023-02-28T21:24:17.376Z,-3.06
2023-02-28T21:27:20.153Z,-2.94
2023-02-28T21:30:23.012Z,-2.82
2023-02-28T21:33:26.280Z,-2.70
2023-02-28T21:36:35.623Z,-2.58
2023-02-28T21:39:38.390Z,-2.47
2023-02-28T21:42:41.120Z,-2.38
2023-02-28T21:45:43.889Z,-2.32
2023-02-28T21:48:49.211Z,-2.21
2023-02-28T21:51:51.891Z,-2.12
2023-02-28T21:54:54.621Z,-2.04
2023-02-28T21:57:57.277Z,-1.99
2023-02-28T22:01:12.846Z,-1.95
2023-02-28T22:04:21.413Z,-1.91
2023-02-28T22:07:24.312Z,-1.85
2023-02-28T22:10:27.189Z,-1.81
2023-02-28T22:13:30.009Z,-1.77
2023-02-28T22:16:49.413Z,-1.74
2023-02-28T22:19:53.692Z,-1.70
2023-02-28T22:22:56.484Z,-1.62
2023-02-28T22:26:03.228Z,-1.56
2023-02-28T22:29:06.404Z,-1.53
2023-02-28T22:32:11.316Z,-1.52
2023-02-28T22:35:13.965Z,-1.45
2023-02-28T22:38:16.794Z,-1.43
2023-02-28T22:41:21.211Z,-1.36
2023-02-28T22:44:23.920Z,-1.34
2023-02-28T22:47:26.887Z,-1.31
2023-02-28T22:50:30.037Z,-1.23
2023-02-28T22:53:34.500Z,-1.15
2023-02-28T22:56:37.413Z,-1.12
2023-02-28T22:59:40.260Z,-1.09
2023-02-28T23:02:44.166Z,-1.05
2023-02-28T23:05:46.790Z,-1.04
2023-02-28T23:08:50.892Z,-1.04
2023-02-28T23:11:53.737Z,-1.06
2023-02-28T23:14:56.561Z,-1.11
2023-02-28T23:18:02.302Z,-1.11
2023-02-28T23:21:05.702Z,-1.21
2023-02-28T23:24:12.814Z,-1.10
2023-02-28T23:27:15.708Z,-1.10
2023-02-28T23:30:23.401Z,-1.12
2023-02-28T23:33:26.523Z,-1.18
2023-02-28T23:36:33.015Z,-1.25
2023-02-28T23:39:35.838Z,-1.30
2023-02-28T23:42:38.509Z,-1.38
2023-02-28T23:45:46.843Z,-1.42
2023-02-28T23:48:49.999Z,-1.42
2023-02-28T23:51:54.582Z,-1.43
2023-02-28T23:54:57.332Z,-1.41
2023-02-28T23:58:00.133Z,-1.37
